Time;durP1;ratioP1;P1;durP2;ratioP2;P2;SDS_P1;SDS_P2;PMS_P1;PMS_P2;Temp;Humidity;BMP_temperature;BMP_pressure;BME280_temperature;BME280_humidity;BME280_pressure;Samples;Min_cycle;Max_cycle;Signal;HPM_P1;HPM_P2
2023/11/03 00:00:59;;;;;;;1.50;0.80;;;;;;;6.48;100.00;153024.63;4952507;29;20462;-77
2023/11/03 00:03:26;;;;;;;3.07;1.47;;;;;;;6.46;100.00;153019.47;4952380;29;20457;-77
2023/11/03 00:05:54;;;;;;;1.83;0.80;;;;;;;6.46;100.00;153019.47;4952168;29;20463;-77
2023/11/03 00:08:21;;;;;;;2.83;1.13;;;;;;;6.41;100.00;153006.53;4936530;29;20483;-77
2023/11/03 00:10:48;;;;;;;2.60;1.10;;;;;;;6.42;100.00;153009.13;4952139;29;20444;-77
2023/11/03 00:13:16;;;;;;;1.73;1.00;;;;;;;6.42;100.00;153009.13;4936379;29;20474;-77
2023/11/03 00:15:42;;;;;;;2.93;1.10;;;;;;;6.39;100.00;153001.38;4952053;29;20470;-77
2023/11/03 00:18:09;;;;;;;1.83;0.93;;;;;;;6.35;100.00;152991.06;4952395;29;20479;-77
2023/11/03 00:20:36;;;;;;;1.37;1.00;;;;;;;6.29;100.00;152976.88;4951601;29;20494;-77
2023/11/03 00:23:07;;;;;;;1.50;0.97;;;;;;;6.26;100.00;152967.81;4951709;29;20499;-77
2023/11/03 00:25:34;;;;;;;2.50;1.00;;;;;;;6.23;100.00;152960.06;4951830;29;20455;-77
2023/11/03 00:28:02;;;;;;;1.80;1.00;;;;;;;6.24;100.00;152962.66;4935686;29;20476;-77
2023/11/03 00:30:29;;;;;;;2.20;1.13;;;;;;;6.26;100.00;152967.81;4951527;29;20613;-77
2023/11/03 00:32:56;;;;;;;3.50;1.27;;;;;;;6.22;100.00;152957.53;4951709;29;20740;-77
2023/11/03 00:35:23;;;;;;;2.70;1.20;;;;;;;6.21;100.00;152956.22;4951918;29;20519;-77
2023/11/03 00:37:51;;;;;;;2.03;1.20;;;;;;;6.12;100.00;152934.28;4967358;28;20780;-77
2023/11/03 00:40:20;;;;;;;2.53;1.13;;;;;;;6.08;100.00;152923.97;4968399;28;20457;-76
2023/11/03 00:42:46;;;;;;;3.23;1.00;;;;;;;6.07;100.00;152921.38;4952844;29;20874;-77
2023/11/03 00:45:14;;;;;;;2.20;1.17;;;;;;;6.10;100.00;152927.84;4951947;29;20486;-77
2023/11/03 00:47:41;;;;;;;2.20;1.00;;;;;;;6.07;100.00;152921.38;4950691;29;20475;-76
2023/11/03 00:50:09;;;;;;;1.40;0.90;;;;;;;6.05;100.00;152914.94;4934107;29;20523;-76
2023/11/03 00:52:36;;;;;;;2.37;1.00;;;;;;;6.03;100.00;152911.09;4949845;29;20511;-76
2023/11/03 00:55:06;;;;;;;3.83;1.40;;;;;;;5.99;100.00;152900.75;4949681;29;20650;-76
2023/11/03 00:57:37;;;;;;;1.20;0.90;;;;;;;5.91;100.00;152880.09;4934545;29;20613;-76
2023/11/03 01:00:05;;;;;;;1.87;1.20;;;;;;;5.88;100.00;152872.34;4950256;29;20706;-76
2023/11/03 01:02:32;;;;;;;1.70;1.20;;;;;;;5.84;100.00;152862.00;4949848;29;20462;-76
2023/11/03 01:04:58;;;;;;;5.20;1.27;;;;;;;5.78;100.00;152845.22;4950050;29;20435;-76
2023/11/03 01:07:26;;;;;;;2.93;1.20;;;;;;;5.76;100.00;152840.06;4949641;29;20963;-76
2023/11/03 01:09:53;;;;;;;2.90;1.53;;;;;;;5.76;100.00;152841.38;4949811;29;20443;-76
2023/11/03 01:12:21;;;;;;;2.40;1.53;;;;;;;5.75;100.00;152838.78;4949392;29;20791;-76
2023/11/03 01:14:52;;;;;;;4.03;1.50;;;;;;;5.72;100.00;152829.78;4934035;29;20439;-77
2023/11/03 01:17:18;;;;;;;3.07;1.50;;;;;;;5.69;100.00;152822.03;4952018;29;20812;-76
2023/11/03 01:19:45;;;;;;;2.50;1.40;;;;;;;5.71;100.00;152828.47;4965142;28;20462;-77
2023/11/03 01:22:12;;;;;;;3.67;1.40;;;;;;;5.70;100.00;152825.88;4949054;29;20447;-77
2023/11/03 01:24:40;;;;;;;2.50;1.10;;;;;;;5.71;100.00;152827.19;4948768;29;20450;-76
2023/11/03 01:27:07;;;;;;;3.43;1.33;;;;;;;5.74;100.00;152834.94;4948888;29;20510;-76
2023/11/03 01:29:34;;;;;;;3.50;1.20;;;;;;;5.77;100.00;152842.69;4948993;29;20781;-76
2023/11/03 01:32:03;;;;;;;2.83;1.17;;;;;;;5.74;100.00;152836.22;4933379;29;20482;-76
2023/11/03 01:34:30;;;;;;;6.83;1.80;;;;;;;5.74;100.00;152834.94;4948694;29;20459;-77
2023/11/03 01:36:57;;;;;;;2.03;1.37;;;;;;;5.70;100.00;152825.88;4948419;28;20487;-77
2023/11/03 01:39:24;;;;;;;7.23;1.83;;;;;;;5.72;100.00;152831.03;4948725;29;20472;-77
2023/11/03 01:41:51;;;;;;;3.03;1.30;;;;;;;5.71;100.00;152827.19;4949056;29;20633;-77
2023/11/03 01:44:18;;;;;;;3.83;1.30;;;;;;;5.68;100.00;152820.75;4949353;29;20523;-77
2023/11/03 01:46:45;;;;;;;1.30;0.90;;;;;;;5.62;100.00;152805.25;4950242;29;20469;-77
2023/11/03 01:49:15;;;;;;;1.60;1.20;;;;;;;5.63;100.00;152806.56;4934777;29;20451;-77
2023/11/03 01:51:42;;;;;;;1.97;1.17;;;;;;;5.59;100.00;152797.50;4950690;29;20835;-77
2023/11/03 01:54:10;;;;;;;2.10;0.73;;;;;;;5.56;100.00;152788.50;4950138;29;20443;-77
2023/11/03 01:56:37;;;;;;;2.20;1.00;;;;;;;5.50;100.00;152774.31;4950049;29;20463;-77
2023/11/03 01:59:05;;;;;;;3.77;1.20;;;;;;;5.48;100.00;152770.44;4950181;29;20464;-77
2023/11/03 02:01:32;;;;;;;2.60;1.20;;;;;;;5.46;100.00;152764.00;4950327;29;20807;-77
2023/11/03 02:03:59;;;;;;;1.70;1.10;;;;;;;5.42;100.00;152753.69;4950137;29;20471;-77
2023/11/03 02:06:27;;;;;;;2.27;1.23;;;;;;;5.39;100.00;152747.25;4954071;29;20459;-77
2023/11/03 02:08:54;;;;;;;3.10;1.03;;;;;;;5.40;100.00;152749.81;4953767;29;20855;-77
2023/11/03 02:11:25;;;;;;;3.00;1.40;;;;;;;5.38;100.00;152743.34;4971349;28;20640;-77
2023/11/03 02:13:52;;;;;;;1.63;1.10;;;;;;;5.40;100.00;152748.56;4954311;29;20439;-77
2023/11/03 02:16:18;;;;;;;3.03;1.20;;;;;;;5.38;100.00;152743.34;4954740;29;20459;-77
2023/11/03 02:18:46;;;;;;;3.17;0.93;;;;;;;5.34;100.00;152734.38;4954436;29;20479;-77
2023/11/03 02:21:13;;;;;;;2.33;1.20;;;;;;;5.35;100.00;152736.91;4954513;29;20681;-77
2023/11/03 02:23:41;;;;;;;2.13;1.30;;;;;;;5.38;100.00;152744.66;4954215;29;20475;-77
2023/11/03 02:26:08;;;;;;;2.43;1.03;;;;;;;5.37;100.00;152742.09;4953989;29;20500;-77
2023/11/03 02:28:35;;;;;;;4.67;1.53;;;;;;;5.38;100.00;152744.66;4953694;29;20501;-77
2023/11/03 02:31:02;;;;;;;3.10;1.00;;;;;;;5.40;100.00;152748.56;4938085;29;20445;-77
2023/11/03 02:33:29;;;;;;;1.87;0.70;;;;;;;5.35;100.00;152736.91;4953974;29;20451;-77
2023/11/03 02:35:56;;;;;;;1.50;0.97;;;;;;;5.34;100.00;152733.06;4954197;29;20672;-77
2023/11/03 02:38:23;;;;;;;2.20;1.23;;;;;;;5.31;100.00;152726.63;4953936;29;20716;-77
2023/11/03 02:40:54;;;;;;;1.70;0.90;;;;;;;5.30;100.00;152722.72;4953649;29;20459;-77
2023/11/03 02:43:21;;;;;;;1.10;0.80;;;;;;;5.29;100.00;152721.47;4969805;29;20443;-77
2023/11/03 02:45:48;;;;;;;2.87;1.17;;;;;;;5.30;100.00;152722.72;4953143;29;20451;-77
2023/11/03 02:48:16;;;;;;;1.50;0.70;;;;;;;5.30;100.00;152722.72;4953882;29;20558;-77
2023/11/03 02:50:43;;;;;;;1.20;0.87;;;;;;;5.29;100.00;152720.19;4953502;29;20538;-77
2023/11/03 02:53:11;;;;;;;5.20;1.30;;;;;;;5.27;100.00;152716.28;4953761;29;20479;-77
2023/11/03 02:55:37;;;;;;;2.57;1.20;;;;;;;5.27;100.00;152716.28;4937831;29;20484;-77
2023/11/03 02:58:06;;;;;;;2.10;1.10;;;;;;;5.22;100.00;152702.09;4953096;29;20458;-77
2023/11/03 03:00:32;;;;;;;1.57;1.00;;;;;;;5.24;100.00;152707.28;4969218;28;20462;-77
2023/11/03 03:03:00;;;;;;;1.93;0.80;;;;;;;5.24;100.00;152707.28;4952899;29;20439;-77
2023/11/03 03:05:27;;;;;;;1.57;0.83;;;;;;;5.20;100.00;152696.94;4953868;29;20455;-77
2023/11/03 03:07:54;;;;;;;2.10;0.83;;;;;;;5.16;100.00;152686.66;4954981;29;20479;-77
2023/11/03 03:10:21;;;;;;;4.00;1.10;;;;;;;5.13;100.00;152678.94;4968749;28;20466;-78
2023/11/03 03:12:48;;;;;;;2.20;1.30;;;;;;;5.12;100.00;152676.31;4952446;29;20468;-77
2023/11/03 03:15:17;;;;;;;2.90;1.37;;;;;;;5.08;100.00;152667.34;4967879;28;20455;-77
2023/11/03 03:17:44;;;;;;;2.53;1.10;;;;;;;5.07;100.00;152663.44;4936298;29;20455;-77
2023/11/03 03:20:11;;;;;;;1.33;0.80;;;;;;;5.04;100.00;152657.00;4936361;29;20518;-77
2023/11/03 03:22:38;;;;;;;1.77;0.80;;;;;;;5.05;100.00;152658.31;4968175;28;20502;-77
2023/11/03 03:25:07;;;;;;;3.40;1.10;;;;;;;5.04;100.00;152655.69;4951944;29;20448;-77
2023/11/03 03:27:34;;;;;;;2.40;0.90;;;;;;;5.05;100.00;152658.31;4951761;29;20479;-77
2023/11/03 03:30:01;;;;;;;3.07;1.10;;;;;;;5.01;100.00;152647.97;4951703;29;20463;-77
2023/11/03 03:32:29;;;;;;;1.47;1.10;;;;;;;4.98;100.00;152640.28;4951914;29;20451;-77
2023/11/03 03:34:57;;;;;;;1.23;0.90;;;;;;;4.95;100.00;152633.78;4951572;29;20467;-77
2023/11/03 03:37:23;;;;;;;1.90;1.30;;;;;;;4.93;100.00;152629.94;4951228;29;20490;-77
2023/11/03 03:39:50;;;;;;;3.53;1.00;;;;;;;4.99;100.00;152642.81;4935252;29;20441;-77
2023/11/03 03:42:19;;;;;;;2.30;1.30;;;;;;;4.98;100.00;152641.53;4950430;29;20800;-77
2023/11/03 03:44:46;;;;;;;4.40;1.20;;;;;;;4.98;100.00;152640.28;4950516;29;20444;-76
2023/11/03 03:47:13;;;;;;;1.97;1.17;;;;;;;5.00;100.00;152645.41;4950289;29;20530;-76
2023/11/03 03:49:41;;;;;;;2.80;1.30;;;;;;;5.00;100.00;152646.72;4950244;29;20512;-76
2023/11/03 03:52:08;;;;;;;1.23;1.00;;;;;;;4.97;100.00;152637.69;4951317;29;20456;-77
2023/11/03 03:54:35;;;;;;;1.33;0.90;;;;;;;4.95;100.00;152632.53;4935254;29;20550;-77
2023/11/03 03:57:02;;;;;;;2.03;0.90;;;;;;;4.95;100.00;152632.53;4935255;29;20476;-76
2023/11/03 03:59:29;;;;;;;1.30;0.90;;;;;;;4.92;100.00;152627.34;4950884;29;20436;-76
2023/11/03 04:01:56;;;;;;;1.40;1.10;;;;;;;4.96;100.00;152636.38;4950619;29;20498;-76
2023/11/03 04:04:22;;;;;;;1.80;1.53;;;;;;;5.01;100.00;152647.97;4934968;29;20432;-77
2023/11/03 04:06:51;;;;;;;3.20;0.90;;;;;;;5.06;100.00;152662.16;4950412;29;20627;-76
2023/11/03 04:09:18;;;;;;;2.07;1.10;;;;;;;5.10;100.00;152672.47;4950519;29;20545;-76
2023/11/03 04:11:44;;;;;;;2.40;1.50;;;;;;;5.16;100.00;152687.97;4934715;29;20542;-77
2023/11/03 04:14:11;;;;;;;3.90;1.00;;;;;;;5.20;100.00;152696.94;4967689;28;20451;-76
2023/11/03 04:16:38;;;;;;;2.23;1.00;;;;;;;5.23;100.00;152704.69;4934709;29;20454;-77
2023/11/03 04:19:05;;;;;;;3.73;1.10;;;;;;;5.27;100.00;152715.03;4950739;29;20440;-76
2023/11/03 04:21:32;;;;;;;2.90;1.07;;;;;;;5.28;100.00;152717.59;4966951;28;20567;-77
2023/11/03 04:24:00;;;;;;;1.93;1.10;;;;;;;5.30;100.00;152722.72;4950960;29;20773;-76
2023/11/03 04:26:27;;;;;;;4.60;1.17;;;;;;;5.31;100.00;152725.31;4950518;28;20459;-76
2023/11/03 04:28:53;;;;;;;1.87;0.97;;;;;;;5.32;100.00;152727.91;4949819;29;20483;-76
2023/11/03 04:31:21;;;;;;;2.90;1.53;;;;;;;5.34;100.00;152733.06;4950599;29;20467;-76
2023/11/03 04:33:48;;;;;;;2.17;1.20;;;;;;;5.36;100.00;152738.22;4950708;29;20503;-76
2023/11/03 04:36:15;;;;;;;2.30;1.27;;;;;;;5.39;100.00;152747.25;4950505;29;20455;-77
2023/11/03 04:38:42;;;;;;;1.90;1.30;;;;;;;5.39;100.00;152747.25;4950554;29;20482;-76
2023/11/03 04:41:10;;;;;;;1.53;1.43;;;;;;;5.43;100.00;152756.25;4950307;29;20455;-76
2023/11/03 04:43:40;;;;;;;1.80;1.10;;;;;;;5.43;100.00;152756.25;4934983;29;20729;-76
2023/11/03 04:46:08;;;;;;;1.50;1.00;;;;;;;5.43;100.00;152756.25;4950889;29;20487;-77
2023/11/03 04:48:35;;;;;;;1.77;1.40;;;;;;;5.45;100.00;152761.44;4950356;29;20503;-76
2023/11/03 04:51:03;;;;;;;3.13;1.13;;;;;;;5.46;100.00;152764.00;4950641;29;20538;-76
2023/11/03 04:53:29;;;;;;;1.97;1.43;;;;;;;5.49;100.00;152773.03;4950292;29;20454;-76
2023/11/03 04:55:56;;;;;;;2.03;1.20;;;;;;;5.49;100.00;152771.72;4965120;28;20502;-77
2023/11/03 04:58:24;;;;;;;2.30;0.90;;;;;;;5.51;100.00;152778.19;4965586;28;20696;-77
2023/11/03 05:00:51;;;;;;;2.23;1.23;;;;;;;5.54;100.00;152784.63;4949914;29;20503;-77
2023/11/03 05:03:19;;;;;;;3.00;1.20;;;;;;;5.53;100.00;152782.06;4950144;29;20522;-77
2023/11/03 05:05:45;;;;;;;1.60;1.20;;;;;;;5.54;100.00;152784.63;4949943;29;20469;-77
2023/11/03 05:08:12;;;;;;;2.70;1.27;;;;;;;5.55;100.00;152787.22;4933838;29;20538;-77
2023/11/03 05:10:39;;;;;;;2.23;1.20;;;;;;;5.56;100.00;152788.50;4949646;29;20451;-76
2023/11/03 05:13:06;;;;;;;2.73;1.20;;;;;;;5.57;100.00;152792.38;4965684;28;20451;-76
2023/11/03 05:15:35;;;;;;;1.70;1.20;;;;;;;5.57;100.00;152791.06;4949458;29;20530;-76
2023/11/03 05:18:02;;;;;;;6.13;1.83;;;;;;;5.59;100.00;152797.50;4949222;29;20693;-77
2023/11/03 05:20:29;;;;;;;6.30;1.80;;;;;;;5.59;100.00;152797.50;4949204;29;20542;-77
2023/11/03 05:22:56;;;;;;;2.23;1.20;;;;;;;5.60;100.00;152800.09;4949079;29;20436;-76
2023/11/03 05:25:23;;;;;;;1.30;1.20;;;;;;;5.61;100.00;152802.72;4949371;29;20775;-77
2023/11/03 05:27:50;;;;;;;2.20;1.30;;;;;;;5.61;100.00;152801.41;4949172;29;21127;-76
2023/11/03 05:30:17;;;;;;;1.90;1.13;;;;;;;5.63;100.00;152806.56;4949189;29;20498;-76
2023/11/03 05:32:45;;;;;;;1.60;1.50;;;;;;;5.63;100.00;152807.84;4948938;29;20494;-77
2023/11/03 05:35:12;;;;;;;1.70;1.10;;;;;;;5.64;100.00;152809.16;4948654;29;20535;-76
2023/11/03 05:37:39;;;;;;;3.80;1.70;;;;;;;5.63;100.00;152806.56;4948599;29;20682;-76
2023/11/03 05:40:11;;;;;;;1.33;1.00;;;;;;;5.61;100.00;152802.72;4948892;29;20751;-76
2023/11/03 05:42:38;;;;;;;2.40;1.43;;;;;;;5.63;100.00;152807.84;4948978;29;20727;-75
2023/11/03 05:45:06;;;;;;;2.30;1.33;;;;;;;5.63;100.00;152807.84;4949515;29;20467;-78
2023/11/03 05:47:33;;;;;;;3.80;1.20;;;;;;;5.65;100.00;152811.69;4933967;29;20488;-77
2023/11/03 05:50:03;;;;;;;2.77;1.43;;;;;;;5.65;100.00;152813.00;4934259;29;20484;-77
2023/11/03 05:52:30;;;;;;;1.93;1.10;;;;;;;5.64;100.00;152810.41;4950121;29;20451;-77
2023/11/03 05:54:57;;;;;;;1.57;1.10;;;;;;;5.64;100.00;152810.41;4966534;28;20439;-78
2023/11/03 05:57:23;;;;;;;2.77;1.40;;;;;;;5.66;100.00;152814.28;4951139;29;20443;-77
2023/11/03 05:59:51;;;;;;;3.23;1.40;;;;;;;5.67;100.00;152818.16;4951001;29;20466;-77
2023/11/03 06:02:18;;;;;;;2.10;1.40;;;;;;;5.67;100.00;152818.16;4935621;29;20447;-77
2023/11/03 06:04:45;;;;;;;2.30;1.60;;;;;;;5.66;100.00;152814.28;4951108;29;20679;-77
2023/11/03 06:07:14;;;;;;;2.03;1.33;;;;;;;5.67;100.00;152818.16;4951396;29;20456;-77
2023/11/03 06:09:43;;;;;;;2.57;1.73;;;;;;;5.67;100.00;152818.16;4950512;29;20482;-77
2023/11/03 06:12:10;;;;;;;4.43;1.23;;;;;;;5.66;100.00;152815.59;4949795;29;20632;-77
2023/11/03 06:14:37;;;;;;;2.10;1.33;;;;;;;5.67;100.00;152816.84;4966184;28;20700;-77
2023/11/03 06:17:05;;;;;;;2.60;1.03;;;;;;;5.68;100.00;152820.75;4934134;29;20439;-77
2023/11/03 06:19:32;;;;;;;1.93;1.10;;;;;;;5.70;100.00;152825.88;4949531;29;20533;-77
2023/11/03 06:21:59;;;;;;;6.07;1.90;;;;;;;5.70;100.00;152824.59;4966073;28;20727;-78
2023/11/03 06:24:27;;;;;;;1.90;1.60;;;;;;;5.72;100.00;152831.03;4950460;29;20509;-77
2023/11/03 06:26:58;;;;;;;2.37;1.70;;;;;;;5.73;100.00;152832.34;4950384;29;20522;-77
2023/11/03 06:29:26;;;;;;;1.80;1.27;;;;;;;5.75;100.00;152838.78;4950787;29;20483;-77
2023/11/03 06:31:52;;;;;;;4.87;2.27;;;;;;;5.76;100.00;152841.38;4951202;29;20494;-77
2023/11/03 06:34:20;;;;;;;4.10;1.97;;;;;;;5.78;100.00;152846.53;4960424;29;20466;-77
2023/11/03 06:36:46;;;;;;;3.13;1.83;;;;;;;5.80;100.00;152851.66;4935312;29;20519;-78
2023/11/03 06:39:14;;;;;;;4.17;1.10;;;;;;;5.81;100.00;152852.97;4951295;29;20458;-77
2023/11/03 06:41:43;;;;;;;3.67;1.53;;;;;;;5.81;100.00;152852.97;4951196;29;20840;-77
2023/11/03 06:44:11;;;;;;;9.53;2.00;;;;;;;5.83;100.00;152858.13;4950525;29;20455;-77
2023/11/03 06:46:38;;;;;;;2.07;1.57;;;;;;;5.83;100.00;152858.13;4949030;29;20471;-77
2023/11/03 06:49:06;;;;;;;2.07;1.53;;;;;;;5.84;100.00;152862.00;4932775;29;20487;-77
2023/11/03 06:51:33;;;;;;;1.80;1.50;;;;;;;5.84;100.00;152862.00;4951480;29;20748;-77
2023/11/03 06:54:00;;;;;;;4.30;1.40;;;;;;;5.85;100.00;152864.63;4936512;29;20451;-77
2023/11/03 06:56:27;;;;;;;2.40;1.20;;;;;;;5.87;100.00;152868.50;4952719;29;20508;-77
2023/11/03 06:58:55;;;;;;;1.80;1.10;;;;;;;5.88;100.00;152872.34;4951969;29;20442;-76
2023/11/03 07:01:23;;;;;;;1.70;1.23;;;;;;;5.93;100.00;152884.00;4951762;29;20463;-77
2023/11/03 07:03:51;;;;;;;3.30;1.53;;;;;;;5.94;100.00;152886.56;4951551;29;20457;-77
2023/11/03 07:06:20;;;;;;;2.43;1.50;;;;;;;5.95;100.00;152890.44;4951894;29;20445;-77
2023/11/03 07:08:47;;;;;;;1.90;1.70;;;;;;;5.96;100.00;152891.69;4951630;29;20473;-76
2023/11/03 07:11:14;;;;;;;3.93;1.37;;;;;;;5.97;100.00;152895.59;4951885;29;20522;-76
2023/11/03 07:13:41;;;;;;;7.90;1.50;;;;;;;5.97;100.00;152894.28;4967508;28;20456;-76
2023/11/03 07:16:13;;;;;;;1.67;1.00;;;;;;;5.97;100.00;152894.28;4951711;29;20467;-77
2023/11/03 07:18:39;;;;;;;1.40;1.20;;;;;;;5.98;100.00;152896.91;4935968;29;20446;-76
2023/11/03 07:21:09;;;;;;;3.00;1.60;;;;;;;5.97;100.00;152895.59;4951943;29;20518;-76
2023/11/03 07:23:36;;;;;;;1.60;1.00;;;;;;;6.00;100.00;152902.03;4951670;29;20491;-76
2023/11/03 07:26:03;;;;;;;2.83;1.30;;;;;;;6.00;100.00;152903.34;4935352;29;20459;-77
2023/11/03 07:28:30;;;;;;;1.90;1.57;;;;;;;6.00;100.00;152903.34;4951318;29;20462;-77
2023/11/03 07:30:57;;;;;;;2.50;1.80;;;;;;;6.02;100.00;152908.50;4951041;29;20466;-77
2023/11/03 07:33:26;;;;;;;2.10;1.10;;;;;;;6.03;100.00;152909.78;4951137;29;20528;-76
2023/11/03 07:35:54;;;;;;;2.87;1.27;;;;;;;6.04;100.00;152913.63;4950936;29;20465;-76
2023/11/03 07:38:21;;;;;;;2.50;1.47;;;;;;;6.06;100.00;152918.78;4950839;29;20515;-76
2023/11/03 07:40:47;;;;;;;2.60;1.27;;;;;;;6.08;100.00;152922.69;4935314;29;20439;-76
2023/11/03 07:43:15;;;;;;;4.10;1.57;;;;;;;6.08;100.00;152923.97;4935232;29;20442;-77
2023/11/03 07:45:42;;;;;;;2.63;1.10;;;;;;;6.09;100.00;152926.53;4951038;29;20475;-76
2023/11/03 07:48:08;;;;;;;3.50;1.50;;;;;;;6.11;100.00;152930.44;4950583;29;20443;-77
2023/11/03 07:50:37;;;;;;;3.10;1.53;;;;;;;6.13;100.00;152935.59;4934192;29;20487;-77
2023/11/03 07:53:06;;;;;;;1.97;1.47;;;;;;;6.13;100.00;152936.88;4950667;29;20463;-76
2023/11/03 07:55:33;;;;;;;2.00;1.40;;;;;;;6.14;100.00;152939.44;4950445;29;20495;-76
2023/11/03 07:58:00;;;;;;;2.70;1.30;;;;;;;6.17;100.00;152944.63;4950055;29;20456;-77
2023/11/03 08:00:27;;;;;;;3.30;1.33;;;;;;;6.19;100.00;152949.78;4934560;29;20443;-77
2023/11/03 08:02:54;;;;;;;1.80;1.40;;;;;;;6.20;100.00;152952.31;4950669;29;20498;-77
2023/11/03 08:05:22;;;;;;;4.00;1.80;;;;;;;6.21;100.00;152954.94;4950715;29;20456;-76
2023/11/03 08:07:50;;;;;;;2.13;1.60;;;;;;;6.24;100.00;152962.66;4950868;29;20494;-76
2023/11/03 08:10:17;;;;;;;3.00;1.80;;;;;;;6.24;100.00;152963.97;4950494;29;20487;-76
2023/11/03 08:12:43;;;;;;;4.57;1.50;;;;;;;6.28;100.00;152972.97;4966460;28;20444;-77
2023/11/03 08:15:10;;;;;;;2.23;1.60;;;;;;;6.31;100.00;152980.72;4950481;29;20538;-77
2023/11/03 08:17:37;;;;;;;1.93;1.40;;;;;;;6.32;100.00;152983.31;4950030;29;20498;-76
2023/11/03 08:20:05;;;;;;;2.70;1.60;;;;;;;6.34;100.00;152988.47;4934199;29;20471;-76
2023/11/03 08:22:32;;;;;;;3.13;1.50;;;;;;;6.36;100.00;152994.91;4949606;29;20451;-76
2023/11/03 08:25:03;;;;;;;2.97;1.43;;;;;;;6.39;100.00;153002.66;4966155;28;20443;-78
2023/11/03 08:27:30;;;;;;;2.30;1.30;;;;;;;6.43;100.00;153011.72;4950712;29;20498;-77
2023/11/03 08:29:57;;;;;;;2.17;1.20;;;;;;;6.47;100.00;153022.00;4935890;29;20483;-77
2023/11/03 08:32:25;;;;;;;1.50;1.10;;;;;;;6.50;100.00;153031.06;4951737;29;20451;-77
2023/11/03 08:34:52;;;;;;;4.50;1.60;;;;;;;6.56;100.00;153045.25;4951937;29;20435;-77
2023/11/03 08:37:21;;;;;;;2.93;1.73;;;;;;;6.58;100.00;153050.41;4950963;29;20736;-77
2023/11/03 08:39:51;;;;;;;2.60;1.33;;;;;;;6.61;100.00;153058.16;4951125;29;20499;-77
2023/11/03 08:42:19;;;;;;;1.80;1.07;;;;;;;6.62;100.00;153062.03;4954230;29;20498;-77
2023/11/03 08:44:46;;;;;;;3.70;1.53;;;;;;;6.66;100.00;153071.06;4953652;29;20459;-77
2023/11/03 08:47:13;;;;;;;1.70;1.37;;;;;;;6.68;100.00;153077.50;4936743;29;20475;-77
2023/11/03 08:49:40;;;;;;;2.90;1.47;;;;;;;6.71;100.00;153085.28;4952636;29;20575;-77
2023/11/03 08:52:07;;;;;;;2.40;1.50;;;;;;;6.76;100.00;153096.88;4936175;29;20440;-77
2023/11/03 08:54:34;;;;;;;1.87;1.30;;;;;;;6.77;100.00;153099.47;4952089;29;20748;-77
2023/11/03 08:57:02;;;;;;;5.87;1.80;;;;;;;6.80;100.00;153107.22;4951868;29;20448;-77
2023/11/03 08:59:31;;;;;;;2.40;1.40;;;;;;;6.86;100.00;153122.69;4951768;29;20443;-77
2023/11/03 09:01:57;;;;;;;2.13;1.17;;;;;;;6.89;100.00;153130.44;4951542;29;20471;-77
2023/11/03 09:04:24;;;;;;;1.40;1.00;;;;;;;6.94;100.00;153142.03;4951693;29;20487;-77
2023/11/03 09:06:51;;;;;;;1.40;1.07;;;;;;;6.96;100.00;153148.53;4967779;28;20452;-77
2023/11/03 09:09:18;;;;;;;1.93;0.90;;;;;;;7.01;100.00;153161.44;4951717;29;20518;-77
2023/11/03 09:11:46;;;;;;;1.87;1.30;;;;;;;7.03;100.00;153166.59;4951448;29;20459;-77
2023/11/03 09:14:13;;;;;;;2.33;1.30;;;;;;;7.05;100.00;153171.75;4951309;29;20455;-77
2023/11/03 09:16:41;;;;;;;4.73;1.80;;;;;;;7.09;100.00;153180.81;4951494;29;20639;-77
2023/11/03 09:19:08;;;;;;;2.13;1.00;;;;;;;7.10;100.00;153184.66;4950973;29;20534;-77
2023/11/03 09:21:35;;;;;;;3.33;1.10;;;;;;;7.11;100.00;153185.94;4967142;29;20466;-77
2023/11/03 09:24:02;;;;;;;1.90;1.20;;;;;;;7.13;100.00;153192.41;4950871;29;20842;-77
2023/11/03 09:26:29;;;;;;;2.10;1.10;;;;;;;7.15;100.00;153197.56;4951145;29;20704;-77
2023/11/03 09:28:56;;;;;;;4.60;1.73;;;;;;;7.18;100.00;153205.31;4934865;29;20478;-77
2023/11/03 09:31:23;;;;;;;2.00;1.30;;;;;;;7.22;100.00;153214.38;4950561;29;20553;-77
2023/11/03 09:33:52;;;;;;;1.60;0.90;;;;;;;7.25;100.00;153223.38;4950891;29;20474;-77
2023/11/03 09:36:19;;;;;;;2.10;1.20;;;;;;;7.30;100.00;153235.03;4934576;29;20529;-76
2023/11/03 09:38:46;;;;;;;2.20;1.30;;;;;;;7.30;100.00;153236.34;4935025;29;20471;-77
2023/11/03 09:41:15;;;;;;;2.60;1.50;;;;;;;7.34;100.00;153246.63;4949072;29;20447;-77
2023/11/03 09:43:44;;;;;;;1.93;1.50;;;;;;;7.39;100.00;153258.25;4933575;29;20448;-76
2023/11/03 09:46:11;;;;;;;1.80;1.07;;;;;;;7.43;100.00;153267.31;4948883;29;20754;-76
2023/11/03 09:48:38;;;;;;;3.27;1.47;;;;;;;7.49;100.00;153282.81;4949153;29;20436;-76
2023/11/03 09:51:07;;;;;;;1.57;0.83;;;;;;;7.52;100.00;153290.56;4948971;29;20480;-76
2023/11/03 09:53:36;;;;;;;3.70;1.47;;;;;;;7.55;100.00;153298.28;4948834;29;20451;-76
2023/11/03 09:56:03;;;;;;;1.53;1.10;;;;;;;7.57;100.00;153303.47;4948935;29;20466;-77
2023/11/03 09:58:31;;;;;;;2.30;1.50;;;;;;;7.62;100.00;153316.41;4933782;29;20431;-77
2023/11/03 10:01:00;;;;;;;2.17;1.17;;;;;;;7.64;100.00;153321.56;4933821;29;20785;-77
2023/11/03 10:03:27;;;;;;;2.43;1.40;;;;;;;7.67;100.00;153329.31;4965012;28;20443;-77
2023/11/03 10:05:54;;;;;;;2.60;1.43;;;;;;;7.69;100.00;153334.47;4949066;29;20467;-76
2023/11/03 10:08:24;;;;;;;1.47;1.20;;;;;;;7.72;100.00;153342.22;4949339;29;20455;-76
2023/11/03 10:10:51;;;;;;;2.00;1.60;;;;;;;7.75;100.00;153349.97;4948930;29;20490;-76
2023/11/03 10:13:20;;;;;;;3.30;1.20;;;;;;;7.80;100.00;153364.19;4949024;29;20466;-77
2023/11/03 10:15:47;;;;;;;1.87;1.30;;;;;;;7.82;100.00;153368.03;4948901;29;20482;-76
2023/11/03 10:18:14;;;;;;;1.77;1.20;;;;;;;7.85;100.00;153377.09;4949345;29;20479;-76
2023/11/03 10:20:42;;;;;;;2.60;1.03;;;;;;;7.86;100.00;153379.66;4932825;29;20447;-77
2023/11/03 10:23:09;;;;;;;4.00;1.20;;;;;;;7.87;100.00;153380.97;4948452;29;20781;-77
2023/11/03 10:25:37;;;;;;;1.90;1.27;;;;;;;7.90;100.00;153390.03;4949291;29;20439;-77
2023/11/03 10:28:05;;;;;;;1.90;1.70;;;;;;;7.94;100.00;153399.09;4951966;29;20695;-77
2023/11/03 10:30:37;;;;;;;1.90;1.20;;;;;;;7.98;100.00;153409.41;4936121;29;20489;-76
2023/11/03 10:33:04;;;;;;;2.33;1.20;;;;;;;8.02;100.00;153418.44;4967910;28;20444;-77
2023/11/03 10:35:31;;;;;;;2.17;1.23;;;;;;;8.04;100.00;153423.63;4952251;29;20447;-76
2023/11/03 10:37:58;;;;;;;2.13;1.33;;;;;;;8.05;100.00;153427.47;4953350;29;20511;-77
2023/11/03 10:40:24;;;;;;;2.70;1.17;;;;;;;8.07;100.00;153432.66;4953162;29;20792;-77
2023/11/03 10:42:54;;;;;;;2.40;0.97;;;;;;;8.09;100.00;153436.53;4953027;29;20451;-76
2023/11/03 10:45:23;;;;;;;2.33;1.00;;;;;;;8.13;100.00;153448.13;4952710;29;20459;-76
2023/11/03 10:47:58;;;;;;;1.87;0.80;;;;;;;8.07;100.00;153432.66;4952918;29;20475;-77
2023/11/03 10:50:31;;;;;;;2.10;1.30;;;;;;;8.07;100.00;153432.66;4952493;29;20482;-76
2023/11/03 10:53:03;;;;;;;2.50;0.80;;;;;;;8.10;100.00;153439.13;4953028;29;20571;-76
2023/11/03 10:55:32;;;;;;;1.50;1.00;;;;;;;8.16;100.00;153454.59;4952721;29;20439;-76
2023/11/03 10:58:02;;;;;;;1.50;0.80;;;;;;;8.18;100.00;153461.06;4936673;29;20652;-76
2023/11/03 11:00:33;;;;;;;2.10;0.70;;;;;;;8.20;100.00;153466.28;4952436;29;20447;-76
2023/11/03 11:03:09;;;;;;;6.13;0.70;;;;;;;8.23;100.00;153472.72;4952590;29;20530;-77
2023/11/03 11:05:40;;;;;;;1.10;0.80;;;;;;;8.25;100.00;153477.88;4952194;29;20447;-76
2023/11/03 11:08:08;;;;;;;1.50;1.10;;;;;;;8.26;100.00;153481.75;4936141;29;20478;-76
2023/11/03 11:10:36;;;;;;;1.47;0.80;;;;;;;8.29;100.00;153489.56;4935907;29;20549;-76
2023/11/03 11:13:05;;;;;;;1.50;0.90;;;;;;;8.29;100.00;153488.25;4952649;29;20748;-77
2023/11/03 11:15:32;;;;;;;1.80;0.93;;;;;;;8.35;100.00;153505.06;4951427;29;20500;-77
2023/11/03 11:18:14;;;;;;;1.43;0.80;;;;;;;8.33;100.00;153499.91;4951461;29;20447;-77
2023/11/03 11:20:50;;;;;;;2.03;0.93;;;;;;;8.35;100.00;153505.06;4951631;29;20462;-76
2023/11/03 11:23:18;;;;;;;2.10;1.13;;;;;;;8.36;100.00;153507.69;4951908;29;20442;-76
2023/11/03 11:25:48;;;;;;;1.67;1.10;;;;;;;8.36;100.00;153506.38;4936464;29;20446;-77